createdAt,value
2018-09-10T00:01:03.526Z,14.70
2018-09-10T00:05:47.475Z,14.60
2018-09-10T00:10:31.758Z,14.50
2018-09-10T00:15:15.558Z,14.60
2018-09-10T00:19:59.553Z,14.60
2018-09-10T00:24:43.290Z,14.60
2018-09-10T00:29:27.724Z,14.70
2018-09-10T00:34:11.850Z,14.70
2018-09-10T00:38:55.737Z,14.70
2018-09-10T00:43:39.945Z,14.50
2018-09-10T00:48:23.808Z,14.50
2018-09-10T00:53:07.872Z,14.50
2018-09-10T00:57:51.701Z,14.40
2018-09-10T01:02:35.586Z,14.40
2018-09-10T01:07:19.588Z,14.40
2018-09-10T01:12:03.576Z,14.20
2018-09-10T01:16:47.977Z,14.20
2018-09-10T01:21:31.897Z,14.10
2018-09-10T01:26:15.865Z,14.10
2018-09-10T01:30:59.815Z,14.10
2018-09-10T01:35:43.746Z,14.10
2018-09-10T01:40:27.891Z,14.10
2018-09-10T01:45:11.687Z,14.00
2018-09-10T01:49:55.571Z,13.90
2018-09-10T01:54:39.295Z,13.90
2018-09-10T01:59:23.901Z,14.00
2018-09-10T02:04:07.591Z,13.90
2018-09-10T02:08:51.301Z,13.80
2018-09-10T02:13:35.380Z,13.70
2018-09-10T02:18:20.146Z,13.60
2018-09-10T02:23:03.879Z,13.50
2018-09-10T02:27:47.563Z,13.50
2018-09-10T02:32:31.824Z,13.50
2018-09-10T02:37:15.619Z,13.60
2018-09-10T02:42:00.009Z,13.60
2018-09-10T02:46:43.787Z,13.60
2018-09-10T02:51:27.857Z,13.50
2018-09-10T02:56:11.612Z,13.50
2018-09-10T03:00:55.342Z,13.50
2018-09-10T03:05:39.146Z,13.40
2018-09-10T03:10:23.240Z,13.30
2018-09-10T03:15:07.120Z,13.30
2018-09-10T03:19:51.043Z,13.30
2018-09-10T03:24:34.976Z,13.20
2018-09-10T03:29:18.876Z,13.20
2018-09-10T03:34:02.616Z,13.30
2018-09-10T03:38:46.235Z,13.30
2018-09-10T03:43:30.024Z,13.20
2018-09-10T03:48:13.779Z,13.20
2018-09-10T03:52:58.408Z,13.10
2018-09-10T03:57:42.300Z,13.00
2018-09-10T04:02:26.100Z,13.00
2018-09-10T04:07:09.724Z,13.00
2018-09-10T04:11:53.452Z,13.00
2018-09-10T04:16:37.117Z,13.10
2018-09-10T04:21:21.008Z,13.20
2018-09-10T04:26:04.730Z,13.10
2018-09-10T04:30:49.161Z,13.10
2018-09-10T04:35:34.723Z,13.10
2018-09-10T04:40:18.620Z,13.10
2018-09-10T04:45:02.764Z,13.10
2018-09-10T04:49:46.804Z,13.30
2018-09-10T04:54:30.902Z,13.50
2018-09-10T04:59:15.669Z,13.50
2018-09-10T05:03:59.966Z,13.60
2018-09-10T05:08:43.799Z,13.60
2018-09-10T05:13:27.953Z,13.70
2018-09-10T05:18:11.662Z,13.80
2018-09-10T05:22:55.416Z,13.80
2018-09-10T05:27:39.210Z,14.00
2018-09-10T05:32:23.246Z,14.10
2018-09-10T05:37:07.066Z,14.20
2018-09-10T05:41:50.999Z,14.30
2018-09-10T05:46:35.082Z,14.50
2018-09-10T05:51:18.788Z,14.90
2018-09-10T05:56:02.548Z,15.20
2018-09-10T06:00:46.586Z,15.40
2018-09-10T06:05:30.390Z,15.60
2018-09-10T06:10:14.075Z,16.00
2018-09-10T06:14:57.820Z,16.30
2018-09-10T06:19:41.690Z,16.50
2018-09-10T06:24:25.972Z,16.80
2018-09-10T06:29:10.319Z,17.10
2018-09-10T06:33:55.728Z,17.20
2018-09-10T06:38:40.037Z,17.30
2018-09-10T06:43:23.860Z,17.30
2018-09-10T06:48:07.828Z,17.40
2018-09-10T06:52:51.715Z,17.30
2018-09-10T06:57:35.764Z,17.50
2018-09-10T07:02:19.812Z,17.60
2018-09-10T07:07:03.542Z,18.00
2018-09-10T07:11:47.447Z,18.30
2018-09-10T07:16:31.456Z,18.80
2018-09-10T07:21:15.413Z,19.30
2018-09-10T07:25:59.813Z,19.70
2018-09-10T07:30:43.959Z,20.10
2018-09-10T07:35:28.521Z,20.60
2018-09-10T07:40:14.861Z,21.10
2018-09-10T07:44:59.079Z,21.50
2018-09-10T07:49:43.262Z,21.90
2018-09-10T07:54:27.169Z,22.30
2018-09-10T07:59:10.886Z,22.60
2018-09-10T08:03:54.669Z,23.10
2018-09-10T08:08:38.498Z,23.60
2018-09-10T08:13:22.440Z,24.00
2018-09-10T08:18:07.168Z,24.30
2018-09-10T08:22:50.987Z,24.50
2018-09-10T08:27:34.804Z,24.80
2018-09-10T08:32:18.709Z,24.80
2018-09-10T08:37:03.207Z,25.00
2018-09-10T08:41:46.988Z,25.10
2018-09-10T08:46:31.025Z,25.40
2018-09-10T08:51:14.935Z,25.60
2018-09-10T08:55:58.925Z,26.00
2018-09-10T09:00:42.582Z,26.00
2018-09-10T09:05:26.454Z,26.20
2018-09-10T09:10:10.322Z,26.40
2018-09-10T09:14:54.164Z,26.50
2018-09-10T09:19:37.979Z,26.60
2018-09-10T09:24:21.929Z,26.40
2018-09-10T09:29:05.761Z,26.70
2018-09-10T09:33:49.619Z,26.70
2018-09-10T09:38:40.849Z,26.90
2018-09-10T09:45:37.240Z,26.60
2018-09-10T09:50:21.722Z,26.70
2018-09-10T09:55:05.831Z,27.40
2018-09-10T09:59:49.895Z,28.40
2018-09-10T10:04:33.962Z,28.30
2018-09-10T10:09:17.818Z,28.00
2018-09-10T10:14:03.373Z,28.10
2018-09-10T10:18:47.356Z,27.90
2018-09-10T10:23:31.149Z,27.50
2018-09-10T10:28:15.167Z,27.90
2018-09-10T10:32:59.009Z,28.20
2018-09-10T10:37:42.841Z,28.00
2018-09-10T10:42:26.573Z,27.90
2018-09-10T10:47:10.523Z,27.60
2018-09-10T10:51:54.462Z,27.30
2018-09-10T10:56:39.432Z,26.70
2018-09-10T11:01:27.620Z,26.40
2018-09-10T11:06:11.678Z,26.80
2018-09-10T11:10:55.429Z,27.60
2018-09-10T11:15:39.157Z,28.20
2018-09-10T11:20:23.004Z,28.70
2018-09-10T11:25:07.124Z,29.30
2018-09-10T11:29:51.895Z,29.40
2018-09-10T11:34:35.698Z,29.10
2018-09-10T11:39:19.685Z,28.80
2018-09-10T11:44:03.968Z,28.40
2018-09-10T11:48:48.739Z,27.90
2018-09-10T11:53:34.370Z,27.90
2018-09-10T11:58:18.188Z,27.80
2018-09-10T12:03:02.220Z,27.80
2018-09-10T12:07:46.160Z,28.20
2018-09-10T12:12:29.872Z,28.00
2018-09-10T12:17:14.951Z,28.70
2018-09-10T12:21:58.635Z,29.50
2018-09-10T12:26:42.521Z,29.60
2018-09-10T12:31:26.438Z,29.90
2018-09-10T12:36:10.386Z,30.60
2018-09-10T12:40:54.122Z,30.60
2018-09-10T12:45:38.196Z,30.00
2018-09-10T12:50:22.872Z,30.00
2018-09-10T12:55:07.097Z,29.50
2018-09-10T12:59:51.145Z,28.30
2018-09-10T13:04:50.294Z,28.10
2018-09-10T13:09:34.420Z,27.60
2018-09-10T13:14:19.440Z,27.60
2018-09-10T13:19:03.229Z,28.20
2018-09-10T13:23:47.121Z,28.10
2018-09-10T13:28:30.876Z,28.00
2018-09-10T13:33:17.579Z,28.70
2018-09-10T13:38:02.976Z,28.70
2018-09-10T13:42:52.817Z,28.90
2018-09-10T13:47:36.939Z,29.00
2018-09-10T13:52:20.718Z,29.40
2018-09-10T13:57:04.689Z,29.30
2018-09-10T14:01:48.933Z,29.00
2018-09-10T14:06:39.898Z,28.70
2018-09-10T14:11:24.253Z,28.30
2018-09-10T14:16:16.291Z,27.80
2018-09-10T14:25:57.199Z,27.50
2018-09-10T14:30:50.004Z,27.20
2018-09-10T14:35:34.364Z,27.20
2018-09-10T14:40:18.681Z,27.10
2018-09-10T14:45:02.547Z,27.10
2018-09-10T14:49:46.788Z,26.90
2018-09-10T14:54:30.768Z,26.70
2018-09-10T14:59:14.660Z,26.60
2018-09-10T15:03:58.509Z,26.50
2018-09-10T15:08:42.749Z,26.60
2018-09-10T15:13:26.592Z,26.70
2018-09-10T15:18:10.524Z,26.30
2018-09-10T15:22:54.344Z,26.10
2018-09-10T15:27:38.363Z,26.00
2018-09-10T15:32:23.660Z,25.80
2018-09-10T15:37:08.396Z,25.50
2018-09-10T15:41:52.197Z,25.30
2018-09-10T15:46:36.357Z,25.10
2018-09-10T15:51:20.510Z,25.00
2018-09-10T15:56:04.836Z,24.90
2018-09-10T16:00:49.088Z,24.90
2018-09-10T16:05:33.133Z,24.80
2018-09-10T16:15:24.761Z,24.70
2018-09-10T16:20:08.904Z,24.70
2018-09-10T16:24:52.824Z,24.60
2018-09-10T16:29:37.524Z,24.30
2018-09-10T16:34:21.684Z,24.00
2018-09-10T16:39:08.374Z,23.70
2018-09-10T16:44:08.571Z,23.40
2018-09-10T16:49:06.792Z,23.20
2018-09-10T16:53:51.488Z,23.00
2018-09-10T16:58:35.559Z,22.90
2018-09-10T17:03:19.314Z,22.60
2018-09-10T17:08:03.058Z,22.50
2018-09-10T17:12:47.066Z,22.20
2018-09-10T17:17:31.214Z,21.90
2018-09-10T17:22:20.696Z,21.80
2018-09-10T17:27:18.428Z,21.60
2018-09-10T17:32:02.737Z,21.30
2018-09-10T17:42:02.499Z,21.10
2018-09-10T17:46:56.425Z,21.30
2018-09-10T17:51:47.085Z,21.40
2018-09-10T17:56:31.757Z,21.40
2018-09-10T18:01:36.745Z,21.40
2018-09-10T18:06:21.561Z,21.40
2018-09-10T18:11:05.702Z,21.20
2018-09-10T18:15:50.393Z,21.30
2018-09-10T18:20:35.152Z,21.10
2018-09-10T18:25:19.313Z,21.10
2018-09-10T18:30:03.671Z,20.90
2018-09-10T18:41:34.086Z,20.70
2018-09-10T18:46:18.359Z,20.60
2018-09-10T18:51:15.620Z,20.60
2018-09-10T18:56:20.456Z,20.70
2018-09-10T19:01:04.590Z,20.60
2018-09-10T19:10:55.787Z,20.60
2018-09-10T19:15:40.263Z,20.50
2018-09-10T19:20:24.491Z,20.50
2018-09-10T19:25:08.675Z,20.40
2018-09-10T19:30:01.331Z,20.20
2018-09-10T19:35:07.763Z,20.20
2018-09-10T19:40:25.451Z,20.00
2018-09-10T19:45:09.938Z,20.00
2018-09-10T19:49:55.234Z,19.90
2018-09-10T19:54:40.785Z,19.90
2018-09-10T19:59:31.420Z,19.90
2018-09-10T20:04:15.924Z,19.90
2018-09-10T20:09:00.522Z,19.80
2018-09-10T20:13:44.587Z,19.80
2018-09-10T20:18:32.040Z,20.00
2018-09-10T20:23:16.262Z,20.20
2018-09-10T20:28:00.254Z,20.20
2018-09-10T20:32:44.418Z,20.20
2018-09-10T20:37:28.572Z,20.20
2018-09-10T20:42:12.878Z,20.10
2018-09-10T20:46:57.006Z,20.20
2018-09-10T20:51:41.230Z,20.30
2018-09-10T20:56:25.492Z,20.30
2018-09-10T21:01:09.524Z,20.30
2018-09-10T21:05:53.312Z,20.20
2018-09-10T21:10:37.118Z,20.20
2018-09-10T21:15:21.029Z,20.30
2018-09-10T21:20:04.920Z,20.30
2018-09-10T21:24:48.712Z,20.50
2018-09-10T21:29:32.502Z,20.60
2018-09-10T21:34:16.310Z,20.70
2018-09-10T21:39:00.064Z,20.60
2018-09-10T21:43:43.834Z,20.40
2018-09-10T21:48:27.650Z,20.20
2018-09-10T21:53:11.472Z,19.90
2018-09-10T21:57:55.288Z,19.70
2018-09-10T22:02:39.133Z,19.60
2018-09-10T22:07:23.003Z,19.50
2018-09-10T22:12:07.015Z,19.40
2018-09-10T22:16:51.692Z,19.20
2018-09-10T22:21:35.558Z,19.20
2018-09-10T22:26:19.461Z,19.00
2018-09-10T22:31:03.393Z,19.00
2018-09-10T22:35:47.168Z,19.00
2018-09-10T22:40:30.914Z,18.90
2018-09-10T22:45:14.757Z,18.80
2018-09-10T22:49:58.702Z,18.70
2018-09-10T22:54:42.649Z,18.60
2018-09-10T22:59:26.577Z,18.60
2018-09-10T23:04:10.687Z,18.50
2018-09-10T23:08:55.655Z,18.50
2018-09-10T23:13:39.309Z,18.40
2018-09-10T23:18:23.256Z,18.40
2018-09-10T23:23:07.342Z,18.30
2018-09-10T23:27:51.264Z,18.20
2018-09-10T23:32:35.122Z,18.10
2018-09-10T23:37:19.261Z,18.10
2018-09-10T23:42:03.117Z,18.00
2018-09-10T23:46:47.058Z,18.00
2018-09-10T23:51:30.796Z,18.00
2018-09-10T23:56:14.854Z,17.90
